sensor_id;sensor_type;location;lat;lon;timestamp;pressure;altitude;pressure_sealevel;temperature
76381;BMP280;65202;52.520;10.528;2023-04-24T00:02:05;99536.44;;;15.33
76381;BMP280;65202;52.520;10.528;2023-04-24T00:04:34;99546.44;;;15.21
76381;BMP280;65202;52.520;10.528;2023-04-24T00:07:01;99540.47;;;15.13
76381;BMP280;65202;52.520;10.528;2023-04-24T00:09:29;99530.44;;;15.19
76381;BMP280;65202;52.520;10.528;2023-04-24T00:11:56;99524.47;;;15.11
76381;BMP280;65202;52.520;10.528;2023-04-24T00:14:24;99523.66;;;15.12
76381;BMP280;65202;52.520;10.528;2023-04-24T00:16:51;99522.00;;;15.18
76381;BMP280;65202;52.520;10.528;2023-04-24T00:19:18;99503.63;;;15.28
76381;BMP280;65202;52.520;10.528;2023-04-24T00:21:48;99517.88;;;15.25
76381;BMP280;65202;52.520;10.528;2023-04-24T00:24:18;99524.63;;;15.29
76381;BMP280;65202;52.520;10.528;2023-04-24T00:26:46;99516.09;;;15.11
76381;BMP280;65202;52.520;10.528;2023-04-24T00:29:13;99516.91;;;15.07
76381;BMP280;65202;52.520;10.528;2023-04-24T00:31:40;99520.25;;;15.06
76381;BMP280;65202;52.520;10.528;2023-04-24T00:34:08;99521.13;;;15.11
76381;BMP280;65202;52.520;10.528;2023-04-24T00:36:35;99508.53;;;15.15
76381;BMP280;65202;52.520;10.528;2023-04-24T00:39:02;99511.88;;;15.11
76381;BMP280;65202;52.520;10.528;2023-04-24T00:41:30;99514.28;;;14.96
76381;BMP280;65202;52.520;10.528;2023-04-24T00:43:57;99511.03;;;15.12
76381;BMP280;65202;52.520;10.528;2023-04-24T00:46:24;99510.19;;;15.10
76381;BMP280;65202;52.520;10.528;2023-04-24T00:48:52;99516.72;;;14.86
76381;BMP280;65202;52.520;10.528;2023-04-24T00:51:19;99510.88;;;14.91
76381;BMP280;65202;52.520;10.528;2023-04-24T00:53:47;99514.16;;;14.78
76381;BMP280;65202;52.520;10.528;2023-04-24T00:56:15;99518.97;;;14.54
76381;BMP280;65202;52.520;10.528;2023-04-24T00:58:42;99512.56;;;14.89
76381;BMP280;65202;52.520;10.528;2023-04-24T01:01:10;99514.03;;;14.65
76381;BMP280;65202;52.520;10.528;2023-04-24T01:03:38;99523.28;;;14.67
76381;BMP280;65202;52.520;10.528;2023-04-24T01:06:08;99520.75;;;14.61
76381;BMP280;65202;52.520;10.528;2023-04-24T01:08:36;99510.31;;;14.29
76381;BMP280;65202;52.520;10.528;2023-04-24T01:11:05;99515.69;;;14.61
76381;BMP280;65202;52.520;10.528;2023-04-24T01:13:33;99519.19;;;14.75
76381;BMP280;65202;52.520;10.528;2023-04-24T01:16:01;99513.34;;;14.84
76381;BMP280;65202;52.520;10.528;2023-04-24T01:18:28;99532.69;;;14.86
76381;BMP280;65202;52.520;10.528;2023-04-24T01:20:59;99524.84;;;14.52
76381;BMP280;65202;52.520;10.528;2023-04-24T01:23:30;99513.97;;;14.57
76381;BMP280;65202;52.520;10.528;2023-04-24T01:25:58;99511.44;;;14.56
76381;BMP280;65202;52.520;10.528;2023-04-24T01:28:25;99511.34;;;14.44
76381;BMP280;65202;52.520;10.528;2023-04-24T01:30:52;99517.91;;;14.30
76381;BMP280;65202;52.520;10.528;2023-04-24T01:33:21;99513.06;;;14.51
76381;BMP280;65202;52.520;10.528;2023-04-24T01:35:49;99501.97;;;14.31
76381;BMP280;65202;52.520;10.528;2023-04-24T01:38:17;99508.06;;;14.54
76381;BMP280;65202;52.520;10.528;2023-04-24T01:40:44;99501.41;;;14.60
76381;BMP280;65202;52.520;10.528;2023-04-24T01:43:12;99500.25;;;14.26
76381;BMP280;65202;52.520;10.528;2023-04-24T01:45:40;99495.13;;;14.20
76381;BMP280;65202;52.520;10.528;2023-04-24T01:48:07;99502.41;;;13.96
76381;BMP280;65202;52.520;10.528;2023-04-24T01:50:34;99504.41;;;14.24
76381;BMP280;65202;52.520;10.528;2023-04-24T01:53:01;99506.59;;;13.97
76381;BMP280;65202;52.520;10.528;2023-04-24T01:55:29;99511.63;;;13.97
76381;BMP280;65202;52.520;10.528;2023-04-24T01:57:56;99513.50;;;14.11
76381;BMP280;65202;52.520;10.528;2023-04-24T02:00:26;99509.00;;;13.86
76381;BMP280;65202;52.520;10.528;2023-04-24T02:02:53;99506.81;;;14.12
76381;BMP280;65202;52.520;10.528;2023-04-24T02:05:21;99504.81;;;13.87
76381;BMP280;65202;52.520;10.528;2023-04-24T02:07:48;99496.25;;;13.70
76381;BMP280;65202;52.520;10.528;2023-04-24T02:10:15;99497.34;;;13.94
76381;BMP280;65202;52.520;10.528;2023-04-24T02:12:42;99496.44;;;13.88
76381;BMP280;65202;52.520;10.528;2023-04-24T02:15:10;99497.38;;;13.97
76381;BMP280;65202;52.520;10.528;2023-04-24T02:17:38;99494.66;;;13.78
76381;BMP280;65202;52.520;10.528;2023-04-24T02:20:06;99490.59;;;13.90
76381;BMP280;65202;52.520;10.528;2023-04-24T02:22:34;99499.78;;;13.87
76381;BMP280;65202;52.520;10.528;2023-04-24T02:25:02;99502.25;;;13.83
76381;BMP280;65202;52.520;10.528;2023-04-24T02:27:29;99501.41;;;13.82
76381;BMP280;65202;52.520;10.528;2023-04-24T02:29:57;99503.69;;;13.64
76381;BMP280;65202;52.520;10.528;2023-04-24T02:32:24;99495.53;;;13.80
76381;BMP280;65202;52.520;10.528;2023-04-24T02:34:51;99498.69;;;13.67
76381;BMP280;65202;52.520;10.528;2023-04-24T02:37:18;99500.50;;;13.76
76381;BMP280;65202;52.520;10.528;2023-04-24T02:39:45;99502.91;;;13.68
76381;BMP280;65202;52.520;10.528;2023-04-24T02:42:13;99495.44;;;13.74
76381;BMP280;65202;52.520;10.528;2023-04-24T02:44:40;99486.78;;;13.51
76381;BMP280;65202;52.520;10.528;2023-04-24T02:47:07;99491.31;;;13.79
76381;BMP280;65202;52.520;10.528;2023-04-24T02:49:35;99494.53;;;13.68
76381;BMP280;65202;52.520;10.528;2023-04-24T02:52:02;99494.50;;;13.66
76381;BMP280;65202;52.520;10.528;2023-04-24T02:54:30;99492.66;;;13.55
76381;BMP280;65202;52.520;10.528;2023-04-24T02:56:57;99484.31;;;13.57
76381;BMP280;65202;52.520;10.528;2023-04-24T02:59:24;99487.03;;;13.74
76381;BMP280;65202;52.520;10.528;2023-04-24T03:01:54;99486.09;;;13.63
76381;BMP280;65202;52.520;10.528;2023-04-24T03:04:21;99491.94;;;13.60
76381;BMP280;65202;52.520;10.528;2023-04-24T03:06:49;99490.34;;;13.70
76381;BMP280;65202;52.520;10.528;2023-04-24T03:09:20;99504.53;;;13.65
76381;BMP280;65202;52.520;10.528;2023-04-24T03:11:48;99497.38;;;13.29
76381;BMP280;65202;52.520;10.528;2023-04-24T03:14:16;99495.19;;;13.56
76381;BMP280;65202;52.520;10.528;2023-04-24T03:16:43;99497.38;;;13.29
76381;BMP280;65202;52.520;10.528;2023-04-24T03:19:10;99493.16;;;13.28
76381;BMP280;65202;52.520;10.528;2023-04-24T03:21:38;99488.44;;;13.49
76381;BMP280;65202;52.520;10.528;2023-04-24T03:24:08;99495.72;;;13.31
76381;BMP280;65202;52.520;10.528;2023-04-24T03:26:35;99501.41;;;13.19
76381;BMP280;65202;52.520;10.528;2023-04-24T03:29:03;99496.69;;;13.41
76381;BMP280;65202;52.520;10.528;2023-04-24T03:31:30;99504.13;;;13.33
76381;BMP280;65202;52.520;10.528;2023-04-24T03:33:57;99504.53;;;13.04
76381;BMP280;65202;52.520;10.528;2023-04-24T03:36:24;99492.94;;;13.14
76381;BMP280;65202;52.520;10.528;2023-04-24T03:38:52;99489.69;;;13.18
76381;BMP280;65202;52.520;10.528;2023-04-24T03:41:20;99508.66;;;13.01
76381;BMP280;65202;52.520;10.528;2023-04-24T03:43:47;99493.91;;;13.20
76381;BMP280;65202;52.520;10.528;2023-04-24T03:46:14;99499.56;;;13.09
76381;BMP280;65202;52.520;10.528;2023-04-24T03:48:42;99497.28;;;13.23
76381;BMP280;65202;52.520;10.528;2023-04-24T03:51:09;99487.47;;;12.85
76381;BMP280;65202;52.520;10.528;2023-04-24T03:53:36;99492.03;;;13.09
76381;BMP280;65202;52.520;10.528;2023-04-24T03:56:03;99489.91;;;12.81
76381;BMP280;65202;52.520;10.528;2023-04-24T03:58:31;99494.16;;;12.85
76381;BMP280;65202;52.520;10.528;2023-04-24T04:00:58;99498.34;;;12.84
76381;BMP280;65202;52.520;10.528;2023-04-24T04:03:25;99492.41;;;12.79
76381;BMP280;65202;52.520;10.528;2023-04-24T04:05:53;99496.66;;;12.85
76381;BMP280;65202;52.520;10.528;2023-04-24T04:08:21;99491.03;;;12.96
76381;BMP280;65202;52.520;10.528;2023-04-24T04:10:48;99489.91;;;12.81
76381;BMP280;65202;52.520;10.528;2023-04-24T04:13:15;99483.31;;;12.86
76381;BMP280;65202;52.520;10.528;2023-04-24T04:15:42;99496.44;;;12.70
76381;BMP280;65202;52.520;10.528;2023-04-24T04:18:10;99499.66;;;12.63
76381;BMP280;65202;52.520;10.528;2023-04-24T04:20:37;99495.88;;;12.86
76381;BMP280;65202;52.520;10.528;2023-04-24T04:23:04;99497.47;;;12.82
76381;BMP280;65202;52.520;10.528;2023-04-24T04:25:31;99493.59;;;12.51
76381;BMP280;65202;52.520;10.528;2023-04-24T04:27:59;99495.16;;;12.91
76381;BMP280;65202;52.520;10.528;2023-04-24T04:30:26;99498.06;;;12.66
76381;BMP280;65202;52.520;10.528;2023-04-24T04:32:56;99498.03;;;12.65
76381;BMP280;65202;52.520;10.528;2023-04-24T04:35:23;99500.75;;;12.78
76381;BMP280;65202;52.520;10.528;2023-04-24T04:37:51;99496.34;;;12.64
76381;BMP280;65202;52.520;10.528;2023-04-24T04:40:19;99493.75;;;12.61
76381;BMP280;65202;52.520;10.528;2023-04-24T04:42:46;99500.69;;;12.25
76381;BMP280;65202;52.520;10.528;2023-04-24T04:45:14;99501.97;;;12.51
76381;BMP280;65202;52.520;10.528;2023-04-24T04:47:43;99504.69;;;12.63
76381;BMP280;65202;52.520;10.528;2023-04-24T04:50:11;99504.28;;;12.86
76381;BMP280;65202;52.520;10.528;2023-04-24T04:52:38;99505.47;;;12.60
76381;BMP280;65202;52.520;10.528;2023-04-24T04:55:06;99504.72;;;12.66
76381;BMP280;65202;52.520;10.528;2023-04-24T04:57:33;99521.34;;;12.58
76381;BMP280;65202;52.520;10.528;2023-04-24T05:00:00;99508.78;;;12.58
76381;BMP280;65202;52.520;10.528;2023-04-24T05:02:28;99522.63;;;12.35
76381;BMP280;65202;52.520;10.528;2023-04-24T05:04:55;99521.75;;;12.83
76381;BMP280;65202;52.520;10.528;2023-04-24T05:07:22;99525.47;;;12.56
76381;BMP280;65202;52.520;10.528;2023-04-24T05:09:50;99519.19;;;12.30
76381;BMP280;65202;52.520;10.528;2023-04-24T05:12:18;99525.72;;;12.69
76381;BMP280;65202;52.520;10.528;2023-04-24T05:14:45;99518.19;;;12.71
76381;BMP280;65202;52.520;10.528;2023-04-24T05:17:12;99523.75;;;13.01
76381;BMP280;65202;52.520;10.528;2023-04-24T05:19:39;99521.44;;;13.13
76381;BMP280;65202;52.520;10.528;2023-04-24T05:22:07;99523.81;;;13.05
76381;BMP280;65202;52.520;10.528;2023-04-24T05:24:34;99544.00;;;12.17
76381;BMP280;65202;52.520;10.528;2023-04-24T05:27:02;99538.63;;;12.42
76381;BMP280;65202;52.520;10.528;2023-04-24T05:29:31;99538.06;;;13.06
76381;BMP280;65202;52.520;10.528;2023-04-24T05:32:00;99543.72;;;12.93
76381;BMP280;65202;52.520;10.528;2023-04-24T05:34:27;99533.84;;;12.55
76381;BMP280;65202;52.520;10.528;2023-04-24T05:36:54;99535.53;;;13.05
76381;BMP280;65202;52.520;10.528;2023-04-24T05:39:22;99535.13;;;12.82
76381;BMP280;65202;52.520;10.528;2023-04-24T05:41:49;99526.38;;;13.10
76381;BMP280;65202;52.520;10.528;2023-04-24T05:44:16;99521.56;;;13.23
76381;BMP280;65202;52.520;10.528;2023-04-24T05:46:43;99525.84;;;13.28
76381;BMP280;65202;52.520;10.528;2023-04-24T05:49:10;99521.88;;;13.44
76381;BMP280;65202;52.520;10.528;2023-04-24T05:51:38;99534.59;;;12.98
76381;BMP280;65202;52.520;10.528;2023-04-24T05:54:06;99528.97;;;13.13
76381;BMP280;65202;52.520;10.528;2023-04-24T05:56:33;99535.06;;;13.28
76381;BMP280;65202;52.520;10.528;2023-04-24T05:59:00;99527.63;;;13.35
76381;BMP280;65202;52.520;10.528;2023-04-24T06:01:28;99523.53;;;13.43
76381;BMP280;65202;52.520;10.528;2023-04-24T06:03:55;99530.13;;;13.34
76381;BMP280;65202;52.520;10.528;2023-04-24T06:06:23;99532.31;;;13.15
76381;BMP280;65202;52.520;10.528;2023-04-24T06:08:51;99526.84;;;13.39
76381;BMP280;65202;52.520;10.528;2023-04-24T06:11:18;99528.34;;;13.30
76381;BMP280;65202;52.520;10.528;2023-04-24T06:13:45;99523.50;;;13.39
76381;BMP280;65202;52.520;10.528;2023-04-24T06:16:12;99537.09;;;12.97
76381;BMP280;65202;52.520;10.528;2023-04-24T06:18:40;99541.38;;;13.04
76381;BMP280;65202;52.520;10.528;2023-04-24T06:21:07;99547.75;;;13.38
76381;BMP280;65202;52.520;10.528;2023-04-24T06:23:34;99539.59;;;13.54
76381;BMP280;65202;52.520;10.528;2023-04-24T06:26:01;99536.97;;;13.44
76381;BMP280;65202;52.520;10.528;2023-04-24T06:28:28;99536.09;;;13.42
76381;BMP280;65202;52.520;10.528;2023-04-24T06:30:56;99539.28;;;13.30
76381;BMP280;65202;52.520;10.528;2023-04-24T06:33:23;99532.97;;;13.58
76381;BMP280;65202;52.520;10.528;2023-04-24T06:35:50;99524.63;;;13.60
76381;BMP280;65202;52.520;10.528;2023-04-24T06:38:17;99526.03;;;13.42
76381;BMP280;65202;52.520;10.528;2023-04-24T06:40:44;99518.78;;;13.63
76381;BMP280;65202;52.520;10.528;2023-04-24T06:43:12;99529.53;;;13.51
76381;BMP280;65202;52.520;10.528;2023-04-24T06:45:39;99532.28;;;13.69
76381;BMP280;65202;52.520;10.528;2023-04-24T06:48:06;99530.84;;;13.89
76381;BMP280;65202;52.520;10.528;2023-04-24T06:50:34;99534.19;;;13.88
76381;BMP280;65202;52.520;10.528;2023-04-24T06:53:02;99535.59;;;13.68
76381;BMP280;65202;52.520;10.528;2023-04-24T06:55:29;99539.16;;;13.83
76381;BMP280;65202;52.520;10.528;2023-04-24T06:57:56;99539.16;;;13.83
76381;BMP280;65202;52.520;10.528;2023-04-24T07:00:23;99534.88;;;13.75
76381;BMP280;65202;52.520;10.528;2023-04-24T07:02:51;99539.69;;;13.60
76381;BMP280;65202;52.520;10.528;2023-04-24T07:05:18;99524.84;;;13.78
76381;BMP280;65202;52.520;10.528;2023-04-24T07:07:48;99530.56;;;13.67
76381;BMP280;65202;52.520;10.528;2023-04-24T07:10:17;99524.81;;;13.75
76381;BMP280;65202;52.520;10.528;2023-04-24T07:12:44;99532.16;;;14.30
76381;BMP280;65202;52.520;10.528;2023-04-24T07:15:12;99531.34;;;14.32
76381;BMP280;65202;52.520;10.528;2023-04-24T07:17:39;99527.41;;;14.58
76381;BMP280;65202;52.520;10.528;2023-04-24T07:20:11;99525.81;;;14.67
76381;BMP280;65202;52.520;10.528;2023-04-24T07:22:38;99533.03;;;14.33
76381;BMP280;65202;52.520;10.528;2023-04-24T07:25:07;99526.41;;;14.41
76381;BMP280;65202;52.520;10.528;2023-04-24T07:27:35;99529.69;;;14.34
76381;BMP280;65202;52.520;10.528;2023-04-24T07:30:04;99541.47;;;14.35
76381;BMP280;65202;52.520;10.528;2023-04-24T07:32:31;99545.31;;;14.08
76381;BMP280;65202;52.520;10.528;2023-04-24T07:34:58;99552.44;;;13.74
76381;BMP280;65202;52.520;10.528;2023-04-24T07:37:27;99573.16;;;13.02
76381;BMP280;65202;52.520;10.528;2023-04-24T07:39:55;99566.22;;;12.87
76381;BMP280;65202;52.520;10.528;2023-04-24T07:42:22;99575.28;;;12.79
76381;BMP280;65202;52.520;10.528;2023-04-24T07:44:49;99580.91;;;12.66
76381;BMP280;65202;52.520;10.528;2023-04-24T07:47:18;99587.88;;;12.82
76381;BMP280;65202;52.520;10.528;2023-04-24T07:49:45;99585.47;;;12.41
76381;BMP280;65202;52.520;10.528;2023-04-24T07:52:12;99584.00;;;12.54
76381;BMP280;65202;52.520;10.528;2023-04-24T07:54:39;99589.78;;;12.48
76381;BMP280;65202;52.520;10.528;2023-04-24T07:57:06;99597.47;;;12.57
76381;BMP280;65202;52.520;10.528;2023-04-24T07:59:35;99593.06;;;12.44
76381;BMP280;65202;52.520;10.528;2023-04-24T08:02:02;99589.00;;;12.52
76381;BMP280;65202;52.520;10.528;2023-04-24T08:04:29;99585.34;;;12.81
76381;BMP280;65202;52.520;10.528;2023-04-24T08:06:56;99585.47;;;12.87
76381;BMP280;65202;52.520;10.528;2023-04-24T08:09:24;99575.69;;;13.03
76381;BMP280;65202;52.520;10.528;2023-04-24T08:11:53;99589.16;;;13.07
76381;BMP280;65202;52.520;10.528;2023-04-24T08:14:20;99589.03;;;12.98
76381;BMP280;65202;52.520;10.528;2023-04-24T08:16:47;99593.94;;;12.92
76381;BMP280;65202;52.520;10.528;2023-04-24T08:19:15;99606.28;;;12.81
76381;BMP280;65202;52.520;10.528;2023-04-24T08:21:42;99607.59;;;13.09
76381;BMP280;65202;52.520;10.528;2023-04-24T08:24:09;99614.53;;;13.22
76381;BMP280;65202;52.520;10.528;2023-04-24T08:26:36;99619.31;;;13.07
76381;BMP280;65202;52.520;10.528;2023-04-24T08:29:04;99618.03;;;13.31
76381;BMP280;65202;52.520;10.528;2023-04-24T08:31:32;99614.09;;;13.48
76381;BMP280;65202;52.520;10.528;2023-04-24T08:33:59;99618.22;;;13.41
76381;BMP280;65202;52.520;10.528;2023-04-24T08:36:27;99608.75;;;13.28
76381;BMP280;65202;52.520;10.528;2023-04-24T08:39:12;99625.28;;;13.13
76381;BMP280;65202;52.520;10.528;2023-04-24T08:41:41;99615.72;;;13.44
76381;BMP280;65202;52.520;10.528;2023-04-24T08:44:10;99616.38;;;13.31
76381;BMP280;65202;52.520;10.528;2023-04-24T08:46:40;99618.09;;;13.35
76381;BMP280;65202;52.520;10.528;2023-04-24T08:49:07;99621.09;;;13.67
76381;BMP280;65202;52.520;10.528;2023-04-24T08:51:36;99615.88;;;13.56
76381;BMP280;65202;52.520;10.528;2023-04-24T08:54:04;99631.53;;;13.37
76381;BMP280;65202;52.520;10.528;2023-04-24T08:56:36;99630.97;;;13.55
76381;BMP280;65202;52.520;10.528;2023-04-24T08:59:06;99627.06;;;13.76
76381;BMP280;65202;52.520;10.528;2023-04-24T09:01:34;99635.13;;;14.84
76381;BMP280;65202;52.520;10.528;2023-04-24T09:04:03;99618.47;;;16.17
76381;BMP280;65202;52.520;10.528;2023-04-24T09:06:31;99607.16;;;15.48
76381;BMP280;65202;52.520;10.528;2023-04-24T09:09:00;99614.53;;;15.24
76381;BMP280;65202;52.520;10.528;2023-04-24T09:11:31;99611.59;;;14.81
76381;BMP280;65202;52.520;10.528;2023-04-24T09:14:00;99607.13;;;14.57
76381;BMP280;65202;52.520;10.528;2023-04-24T09:16:28;99611.28;;;14.51
76381;BMP280;65202;52.520;10.528;2023-04-24T09:18:56;99615.22;;;14.27
76381;BMP280;65202;52.520;10.528;2023-04-24T09:21:23;99635.72;;;15.50
76381;BMP280;65202;52.520;10.528;2023-04-24T09:24:01;99624.97;;;15.72
76381;BMP280;65202;52.520;10.528;2023-04-24T09:26:31;99612.16;;;15.45
76381;BMP280;65202;52.520;10.528;2023-04-24T09:28:59;99609.28;;;15.02
76381;BMP280;65202;52.520;10.528;2023-04-24T09:31:28;99621.47;;;14.61
76381;BMP280;65202;52.520;10.528;2023-04-24T09:34:02;99626.47;;;14.58
76381;BMP280;65202;52.520;10.528;2023-04-24T09:36:35;99630.69;;;15.53
76381;BMP280;65202;52.520;10.528;2023-04-24T09:39:06;99629.28;;;14.85
76381;BMP280;65202;52.520;10.528;2023-04-24T09:41:48;99624.03;;;14.66
76381;BMP280;65202;52.520;10.528;2023-04-24T09:44:21;99635.44;;;16.52
76381;BMP280;65202;52.520;10.528;2023-04-24T09:46:51;99617.75;;;16.44
76381;BMP280;65202;52.520;10.528;2023-04-24T09:49:23;99624.38;;;16.23
76381;BMP280;65202;52.520;10.528;2023-04-24T09:52:09;99622.91;;;17.14
76381;BMP280;65202;52.520;10.528;2023-04-24T09:54:38;99609.41;;;17.78
76381;BMP280;65202;52.520;10.528;2023-04-24T09:57:09;99598.38;;;17.86
76381;BMP280;65202;52.520;10.528;2023-04-24T09:59:41;99597.13;;;18.78
76381;BMP280;65202;52.520;10.528;2023-04-24T10:02:19;99595.69;;;18.38
76381;BMP280;65202;52.520;10.528;2023-04-24T10:05:05;99607.72;;;17.59
76381;BMP280;65202;52.520;10.528;2023-04-24T10:07:33;99617.88;;;17.14
76381;BMP280;65202;52.520;10.528;2023-04-24T10:10:00;99618.59;;;16.42
76381;BMP280;65202;52.520;10.528;2023-04-24T10:12:28;99608.38;;;16.26
76381;BMP280;65202;52.520;10.528;2023-04-24T10:14:57;99606.66;;;16.14
76381;BMP280;65202;52.520;10.528;2023-04-24T10:17:25;99605.84;;;16.18
76381;BMP280;65202;52.520;10.528;2023-04-24T10:19:55;99608.91;;;15.64
76381;BMP280;65202;52.520;10.528;2023-04-24T10:22:24;99611.47;;;15.67
76381;BMP280;65202;52.520;10.528;2023-04-24T10:24:52;99618.22;;;15.71
76381;BMP280;65202;52.520;10.528;2023-04-24T10:27:20;99621.56;;;15.68
76381;BMP280;65202;52.520;10.528;2023-04-24T10:29:50;99618.94;;;15.50
76381;BMP280;65202;52.520;10.528;2023-04-24T10:32:19;99628.09;;;15.42
76381;BMP280;65202;52.520;10.528;2023-04-24T10:34:47;99621.69;;;15.92
76381;BMP280;65202;52.520;10.528;2023-04-24T10:37:15;99616.56;;;15.77
76381;BMP280;65202;52.520;10.528;2023-04-24T10:39:47;99611.66;;;15.98
76381;BMP280;65202;52.520;10.528;2023-04-24T10:42:15;99608.56;;;17.02
76381;BMP280;65202;52.520;10.528;2023-04-24T10:44:43;99611.09;;;16.81
76381;BMP280;65202;52.520;10.528;2023-04-24T10:47:14;99614.53;;;17.39
76381;BMP280;65202;52.520;10.528;2023-04-24T10:49:42;99619.56;;;17.15
76381;BMP280;65202;52.520;10.528;2023-04-24T10:52:09;99620.41;;;17.32
76381;BMP280;65202;52.520;10.528;2023-04-24T10:59:49;99620.94;;;16.14
76381;BMP280;65202;52.520;10.528;2023-04-24T11:02:18;99629.19;;;15.78
76381;BMP280;65202;52.520;10.528;2023-04-24T11:05:06;99642.69;;;15.86
76381;BMP280;65202;52.520;10.528;2023-04-24T11:08:13;99631.59;;;15.62
76381;BMP280;65202;52.520;10.528;2023-04-24T11:10:47;99634.03;;;15.46
76381;BMP280;65202;52.520;10.528;2023-04-24T11:13:22;99629.78;;;15.40
76381;BMP280;65202;52.520;10.528;2023-04-24T11:16:15;99638.78;;;15.13
76381;BMP280;65202;52.520;10.528;2023-04-24T11:19:07;99635.53;;;15.27
76381;BMP280;65202;52.520;10.528;2023-04-24T11:21:43;99644.69;;;15.19
76381;BMP280;65202;52.520;10.528;2023-04-24T11:27:16;99636.25;;;15.14
76381;BMP280;65202;52.520;10.528;2023-04-24T11:32:28;99639.38;;;14.90
76381;BMP280;65202;52.520;10.528;2023-04-24T11:35:10;99637.19;;;15.22
76381;BMP280;65202;52.520;10.528;2023-04-24T11:37:49;99635.44;;;15.20
76381;BMP280;65202;52.520;10.528;2023-04-24T11:40:38;99634.78;;;15.34
76381;BMP280;65202;52.520;10.528;2023-04-24T11:43:06;99633.78;;;15.19
76381;BMP280;65202;52.520;10.528;2023-04-24T11:45:34;99637.66;;;15.92
76381;BMP280;65202;52.520;10.528;2023-04-24T11:48:02;99626.56;;;15.59
76381;BMP280;65202;52.520;10.528;2023-04-24T11:50:30;99630.88;;;15.81
76381;BMP280;65202;52.520;10.528;2023-04-24T11:52:57;99625.66;;;15.53
76381;BMP280;65202;52.520;10.528;2023-04-24T11:55:28;99637.06;;;15.12
76381;BMP280;65202;52.520;10.528;2023-04-24T11:57:58;99630.25;;;15.02
76381;BMP280;65202;52.520;10.528;2023-04-24T12:00:31;99624.03;;;15.62
76381;BMP280;65202;52.520;10.528;2023-04-24T12:03:11;99631.63;;;14.70
76381;BMP280;65202;52.520;10.528;2023-04-24T12:05:39;99634.25;;;14.79
76381;BMP280;65202;52.520;10.528;2023-04-24T12:08:07;99630.91;;;14.82
76381;BMP280;65202;52.520;10.528;2023-04-24T12:10:35;99649.44;;;14.87
76381;BMP280;65202;52.520;10.528;2023-04-24T12:13:02;99651.78;;;14.70
76381;BMP280;65202;52.520;10.528;2023-04-24T12:15:30;99651.81;;;14.73
76381;BMP280;65202;52.520;10.528;2023-04-24T12:17:57;99655.13;;;14.03
76381;BMP280;65202;52.520;10.528;2023-04-24T12:20:28;99653.44;;;14.02
76381;BMP280;65202;52.520;10.528;2023-04-24T12:22:59;99666.75;;;13.95
76381;BMP280;65202;52.520;10.528;2023-04-24T12:25:29;99668.00;;;14.24
76381;BMP280;65202;52.520;10.528;2023-04-24T12:30:35;99655.84;;;14.58
76381;BMP280;65202;52.520;10.528;2023-04-24T12:33:11;99652.53;;;14.62
76381;BMP280;65202;52.520;10.528;2023-04-24T12:35:40;99637.97;;;14.36
76381;BMP280;65202;52.520;10.528;2023-04-24T12:38:10;99649.56;;;14.25
76381;BMP280;65202;52.520;10.528;2023-04-24T12:40:42;99648.94;;;14.39
76381;BMP280;65202;52.520;10.528;2023-04-24T12:43:18;99645.31;;;14.21
76381;BMP280;65202;52.520;10.528;2023-04-24T12:45:49;99645.00;;;13.98
76381;BMP280;65202;52.520;10.528;2023-04-24T12:48:16;99654.41;;;14.10
76381;BMP280;65202;52.520;10.528;2023-04-24T12:50:44;99668.47;;;13.97
76381;BMP280;65202;52.520;10.528;2023-04-24T12:53:13;99676.88;;;13.45
76381;BMP280;65202;52.520;10.528;2023-04-24T12:55:41;99679.13;;;13.27
76381;BMP280;65202;52.520;10.528;2023-04-24T12:58:08;99673.13;;;13.19
76381;BMP280;65202;52.520;10.528;2023-04-24T13:00:36;99684.97;;;13.27
76381;BMP280;65202;52.520;10.528;2023-04-24T13:03:05;99675.47;;;13.60
76381;BMP280;65202;52.520;10.528;2023-04-24T13:05:32;99676.84;;;13.40
76381;BMP280;65202;52.520;10.528;2023-04-24T13:08:00;99670.81;;;13.84
76381;BMP280;65202;52.520;10.528;2023-04-24T13:10:27;99664.63;;;13.63
76381;BMP280;65202;52.520;10.528;2023-04-24T13:12:54;99669.66;;;13.63
76381;BMP280;65202;52.520;10.528;2023-04-24T13:15:21;99665.56;;;13.69
76381;BMP280;65202;52.520;10.528;2023-04-24T13:17:49;99663.66;;;13.56
76381;BMP280;65202;52.520;10.528;2023-04-24T13:20:17;99666.88;;;13.46
76381;BMP280;65202;52.520;10.528;2023-04-24T13:22:44;99671.63;;;13.30
76381;BMP280;65202;52.520;10.528;2023-04-24T13:25:12;99686.25;;;13.05
76381;BMP280;65202;52.520;10.528;2023-04-24T13:27:39;99697.81;;;12.53
76381;BMP280;65202;52.520;10.528;2023-04-24T13:30:07;99696.31;;;12.63
76381;BMP280;65202;52.520;10.528;2023-04-24T13:32:35;99716.47;;;12.25
76381;BMP280;65202;52.520;10.528;2023-04-24T13:35:03;99710.00;;;11.98
76381;BMP280;65202;52.520;10.528;2023-04-24T13:37:31;99708.50;;;12.06
76381;BMP280;65202;52.520;10.528;2023-04-24T13:39:58;99720.06;;;11.99
76381;BMP280;65202;52.520;10.528;2023-04-24T13:42:25;99712.94;;;12.17
76381;BMP280;65202;52.520;10.528;2023-04-24T13:44:52;99720.69;;;12.26
76381;BMP280;65202;52.520;10.528;2023-04-24T13:47:20;99710.06;;;12.39
76381;BMP280;65202;52.520;10.528;2023-04-24T13:49:48;99705.72;;;12.32
76381;BMP280;65202;52.520;10.528;2023-04-24T13:52:15;99697.41;;;12.76
76381;BMP280;65202;52.520;10.528;2023-04-24T13:54:42;99705.41;;;12.57
76381;BMP280;65202;52.520;10.528;2023-04-24T13:57:09;99694.84;;;12.73
76381;BMP280;65202;52.520;10.528;2023-04-24T13:59:37;99711.22;;;12.55
76381;BMP280;65202;52.520;10.528;2023-04-24T14:02:04;99703.84;;;12.62
76381;BMP280;65202;52.520;10.528;2023-04-24T14:04:32;99700.78;;;12.34
76381;BMP280;65202;52.520;10.528;2023-04-24T14:06:59;99692.34;;;12.73
76381;BMP280;65202;52.520;10.528;2023-04-24T14:09:27;99695.66;;;12.72
76381;BMP280;65202;52.520;10.528;2023-04-24T14:11:54;99707.38;;;12.70
76381;BMP280;65202;52.520;10.528;2023-04-24T14:14:21;99711.03;;;12.46
76381;BMP280;65202;52.520;10.528;2023-04-24T14:16:48;99712.53;;;12.36
76381;BMP280;65202;52.520;10.528;2023-04-24T14:19:15;99729.63;;;12.15